sensor_id;sensor_type;location;lat;lon;timestamp;pressure;altitude;pressure_sealevel;temperature;humidity
5883;BME280;2967;51.488;6.618;2023-08-30T00:03:02;100572.09;;;16.65;100.00
5883;BME280;2967;51.488;6.618;2023-08-30T00:08:08;100564.50;;;16.70;100.00
5883;BME280;2967;51.488;6.618;2023-08-30T00:13:12;100585.00;;;16.79;100.00
5883;BME280;2967;51.488;6.618;2023-08-30T00:18:33;100543.00;;;16.62;100.00
5883;BME280;2967;51.488;6.618;2023-08-30T00:23:54;100335.81;;;15.39;100.00
5883;BME280;2967;51.488;6.618;2023-08-30T00:28:57;100590.47;;;16.87;100.00
5883;BME280;2967;51.488;6.618;2023-08-30T00:34:07;100588.09;;;16.74;100.00
5883;BME280;2967;51.488;6.618;2023-08-30T00:39:12;100568.00;;;16.61;100.00
5883;BME280;2967;51.488;6.618;2023-08-30T00:44:18;100615.75;;;17.02;100.00
5883;BME280;2967;51.488;6.618;2023-08-30T00:49:26;100606.06;;;16.91;100.00
5883;BME280;2967;51.488;6.618;2023-08-30T00:54:31;100524.50;;;16.41;100.00
5883;BME280;2967;51.488;6.618;2023-08-30T00:59:34;100574.59;;;16.66;100.00
5883;BME280;2967;51.488;6.618;2023-08-30T01:04:39;100588.66;;;16.68;100.00
5883;BME280;2967;51.488;6.618;2023-08-30T01:09:41;100553.00;;;16.50;100.00
5883;BME280;2967;51.488;6.618;2023-08-30T01:14:50;100577.16;;;16.68;100.00
5883;BME280;2967;51.488;6.618;2023-08-30T01:19:58;100521.81;;;16.22;100.00
5883;BME280;2967;51.488;6.618;2023-08-30T01:25:12;100514.06;;;16.10;100.00
5883;BME280;2967;51.488;6.618;2023-08-30T01:30:22;100448.91;;;15.75;100.00
5883;BME280;2967;51.488;6.618;2023-08-30T01:35:29;100579.56;;;16.61;100.00
5883;BME280;2967;51.488;6.618;2023-08-30T01:40:36;100577.72;;;16.52;100.00
5883;BME280;2967;51.488;6.618;2023-08-30T01:45:42;100507.59;;;16.03;100.00
5883;BME280;2967;51.488;6.618;2023-08-30T01:50:46;100534.88;;;16.35;100.00
5883;BME280;2967;51.488;6.618;2023-08-30T01:55:49;100580.81;;;16.57;100.00
5883;BME280;2967;51.488;6.618;2023-08-30T02:00:55;100569.44;;;16.55;100.00
5883;BME280;2967;51.488;6.618;2023-08-30T02:06:03;100570.97;;;16.58;100.00
5883;BME280;2967;51.488;6.618;2023-08-30T02:11:19;100571.56;;;16.42;100.00
5883;BME280;2967;51.488;6.618;2023-08-30T02:16:25;100480.63;;;15.96;100.00
5883;BME280;2967;51.488;6.618;2023-08-30T02:21:30;100561.16;;;16.49;100.00
5883;BME280;2967;51.488;6.618;2023-08-30T02:26:33;100565.66;;;16.48;100.00
5883;BME280;2967;51.488;6.618;2023-08-30T02:31:37;100550.34;;;16.50;100.00
5883;BME280;2967;51.488;6.618;2023-08-30T02:36:40;100432.78;;;15.67;100.00
5883;BME280;2967;51.488;6.618;2023-08-30T02:41:42;100551.84;;;16.62;100.00
5883;BME280;2967;51.488;6.618;2023-08-30T02:46:48;100554.09;;;16.57;100.00
5883;BME280;2967;51.488;6.618;2023-08-30T02:51:51;100554.09;;;16.57;100.00
5883;BME280;2967;51.488;6.618;2023-08-30T02:56:54;100544.56;;;16.45;100.00
5883;BME280;2967;51.488;6.618;2023-08-30T03:01:58;100455.09;;;16.03;100.00
5883;BME280;2967;51.488;6.618;2023-08-30T03:07:03;100325.00;;;15.22;100.00
5883;BME280;2967;51.488;6.618;2023-08-30T03:12:08;100528.94;;;16.60;100.00
5883;BME280;2967;51.488;6.618;2023-08-30T03:17:12;100408.50;;;15.89;100.00
5883;BME280;2967;51.488;6.618;2023-08-30T03:22:15;100527.44;;;16.38;100.00
5883;BME280;2967;51.488;6.618;2023-08-30T03:27:18;100472.38;;;16.09;100.00
5883;BME280;2967;51.488;6.618;2023-08-30T03:32:22;100511.28;;;16.49;100.00
5883;BME280;2967;51.488;6.618;2023-08-30T03:37:25;100500.72;;;16.48;100.00
5883;BME280;2967;51.488;6.618;2023-08-30T03:42:31;100510.69;;;16.55;100.00
5883;BME280;2967;51.488;6.618;2023-08-30T03:47:36;100503.38;;;16.48;100.00
5883;BME280;2967;51.488;6.618;2023-08-30T03:52:40;100503.13;;;16.41;100.00
5883;BME280;2967;51.488;6.618;2023-08-30T03:57:42;100499.88;;;16.28;100.00
5883;BME280;2967;51.488;6.618;2023-08-30T04:02:46;100506.50;;;16.43;100.00
5883;BME280;2967;51.488;6.618;2023-08-30T04:07:50;100481.59;;;16.43;100.00
5883;BME280;2967;51.488;6.618;2023-08-30T04:12:53;100500.88;;;16.37;100.00
5883;BME280;2967;51.488;6.618;2023-08-30T04:17:58;100482.28;;;16.64;100.00
5883;BME280;2967;51.488;6.618;2023-08-30T04:23:02;100480.56;;;16.63;100.00
5883;BME280;2967;51.488;6.618;2023-08-30T04:28:07;100342.09;;;15.95;100.00
5883;BME280;2967;51.488;6.618;2023-08-30T04:33:14;100435.81;;;16.38;100.00
5883;BME280;2967;51.488;6.618;2023-08-30T04:38:20;100450.44;;;16.24;100.00
5883;BME280;2967;51.488;6.618;2023-08-30T04:43:23;100395.88;;;15.91;100.00
5883;BME280;2967;51.488;6.618;2023-08-30T04:48:30;100352.09;;;15.74;100.00
5883;BME280;2967;51.488;6.618;2023-08-30T04:53:33;100403.50;;;16.31;100.00
5883;BME280;2967;51.488;6.618;2023-08-30T04:58:36;100438.00;;;16.61;100.00
5883;BME280;2967;51.488;6.618;2023-08-30T05:03:43;100448.88;;;16.50;100.00
5883;BME280;2967;51.488;6.618;2023-08-30T05:08:48;100435.78;;;16.57;100.00
5883;BME280;2967;51.488;6.618;2023-08-30T05:13:54;100361.53;;;16.14;100.00
5883;BME280;2967;51.488;6.618;2023-08-30T05:18:58;100412.44;;;16.59;100.00
5883;BME280;2967;51.488;6.618;2023-08-30T05:24:01;100390.47;;;16.28;100.00
5883;BME280;2967;51.488;6.618;2023-08-30T05:29:06;100412.34;;;16.41;100.00
5883;BME280;2967;51.488;6.618;2023-08-30T05:34:10;100364.72;;;16.27;100.00
5883;BME280;2967;51.488;6.618;2023-08-30T05:39:29;100399.63;;;16.62;100.00
5883;BME280;2967;51.488;6.618;2023-08-30T05:44:33;100382.38;;;16.57;100.00
5883;BME280;2967;51.488;6.618;2023-08-30T05:49:40;100310.97;;;16.13;100.00
5883;BME280;2967;51.488;6.618;2023-08-30T05:54:42;100400.19;;;16.66;100.00
5883;BME280;2967;51.488;6.618;2023-08-30T05:59:48;100376.84;;;16.68;100.00
5883;BME280;2967;51.488;6.618;2023-08-30T06:04:57;100373.72;;;16.72;100.00
5883;BME280;2967;51.488;6.618;2023-08-30T06:10:00;100339.75;;;16.65;100.00
5883;BME280;2967;51.488;6.618;2023-08-30T06:15:04;100340.47;;;16.57;100.00
5883;BME280;2967;51.488;6.618;2023-08-30T06:20:10;100365.38;;;16.85;100.00
5883;BME280;2967;51.488;6.618;2023-08-30T06:25:13;100362.94;;;16.91;100.00
5883;BME280;2967;51.488;6.618;2023-08-30T06:30:17;100357.88;;;16.88;100.00
5883;BME280;2967;51.488;6.618;2023-08-30T06:35:21;100327.69;;;16.78;100.00
5883;BME280;2967;51.488;6.618;2023-08-30T06:40:24;100306.88;;;16.82;100.00
5883;BME280;2967;51.488;6.618;2023-08-30T06:45:27;100372.78;;;17.35;100.00
5883;BME280;2967;51.488;6.618;2023-08-30T06:50:35;100372.56;;;17.46;100.00
5883;BME280;2967;51.488;6.618;2023-08-30T06:55:38;100356.72;;;17.53;100.00
5883;BME280;2967;51.488;6.618;2023-08-30T07:00:41;100333.84;;;17.50;100.00
5883;BME280;2967;51.488;6.618;2023-08-30T07:05:46;100348.75;;;17.78;100.00
5883;BME280;2967;51.488;6.618;2023-08-30T07:10:53;100275.81;;;17.51;100.00
5883;BME280;2967;51.488;6.618;2023-08-30T07:15:56;100335.56;;;18.02;100.00
5883;BME280;2967;51.488;6.618;2023-08-30T07:21:00;100329.00;;;18.22;100.00
5883;BME280;2967;51.488;6.618;2023-08-30T07:26:05;100339.63;;;18.32;100.00
5883;BME280;2967;51.488;6.618;2023-08-30T07:31:08;100315.69;;;18.30;100.00
5883;BME280;2967;51.488;6.618;2023-08-30T07:36:16;100343.91;;;18.50;100.00
5883;BME280;2967;51.488;6.618;2023-08-30T07:41:19;100330.53;;;18.58;100.00
5883;BME280;2967;51.488;6.618;2023-08-30T07:46:22;100299.22;;;18.51;100.00
5883;BME280;2967;51.488;6.618;2023-08-30T07:51:27;100333.16;;;18.76;100.00
5883;BME280;2967;51.488;6.618;2023-08-30T07:56:31;100283.22;;;18.33;100.00
5883;BME280;2967;51.488;6.618;2023-08-30T08:01:35;100332.97;;;18.77;100.00
5883;BME280;2967;51.488;6.618;2023-08-30T08:06:39;100337.53;;;18.84;100.00
5883;BME280;2967;51.488;6.618;2023-08-30T08:11:42;100296.56;;;18.59;100.00
5883;BME280;2967;51.488;6.618;2023-08-30T08:16:46;100288.53;;;18.59;100.00
5883;BME280;2967;51.488;6.618;2023-08-30T08:21:50;100281.84;;;18.55;100.00
5883;BME280;2967;51.488;6.618;2023-08-30T08:26:55;100303.75;;;18.50;100.00
5883;BME280;2967;51.488;6.618;2023-08-30T08:31:58;100290.97;;;18.44;100.00
5883;BME280;2967;51.488;6.618;2023-08-30T08:37:03;100344.84;;;18.67;100.00
5883;BME280;2967;51.488;6.618;2023-08-30T08:42:06;100327.09;;;18.32;100.00
5883;BME280;2967;51.488;6.618;2023-08-30T08:47:09;100320.28;;;18.20;100.00
5883;BME280;2967;51.488;6.618;2023-08-30T08:52:17;100351.53;;;18.37;100.00
5883;BME280;2967;51.488;6.618;2023-08-30T08:57:33;100353.25;;;18.21;100.00
5883;BME280;2967;51.488;6.618;2023-08-30T09:02:36;100355.50;;;17.82;100.00
5883;BME280;2967;51.488;6.618;2023-08-30T09:07:42;100342.97;;;17.65;100.00
5883;BME280;2967;51.488;6.618;2023-08-30T09:12:48;100339.44;;;17.82;100.00
5883;BME280;2967;51.488;6.618;2023-08-30T09:17:53;100338.22;;;17.77;100.00
5883;BME280;2967;51.488;6.618;2023-08-30T09:22:57;100312.47;;;17.58;100.00
5883;BME280;2967;51.488;6.618;2023-08-30T09:28:00;100270.66;;;17.49;100.00
5883;BME280;2967;51.488;6.618;2023-08-30T09:33:04;100332.34;;;17.73;100.00
5883;BME280;2967;51.488;6.618;2023-08-30T09:38:16;100288.56;;;17.22;100.00
5883;BME280;2967;51.488;6.618;2023-08-30T09:43:19;100310.38;;;17.44;100.00
5883;BME280;2967;51.488;6.618;2023-08-30T09:48:28;100296.44;;;17.23;100.00
5883;BME280;2967;51.488;6.618;2023-08-30T09:53:40;100268.28;;;17.11;100.00
5883;BME280;2967;51.488;6.618;2023-08-30T09:59:02;100305.03;;;17.44;100.00
5883;BME280;2967;51.488;6.618;2023-08-30T10:04:09;100305.53;;;17.65;100.00
5883;BME280;2967;51.488;6.618;2023-08-30T10:09:15;100303.03;;;17.46;100.00
5883;BME280;2967;51.488;6.618;2023-08-30T10:14:22;100292.97;;;17.40;100.00
5883;BME280;2967;51.488;6.618;2023-08-30T10:19:26;100306.47;;;17.56;100.00
5883;BME280;2967;51.488;6.618;2023-08-30T10:24:34;100301.22;;;17.47;100.00
5883;BME280;2967;51.488;6.618;2023-08-30T10:29:54;100243.00;;;17.23;100.00
5883;BME280;2967;51.488;6.618;2023-08-30T10:35:01;100289.28;;;17.41;100.00
5883;BME280;2967;51.488;6.618;2023-08-30T10:40:07;100309.41;;;17.18;100.00
5883;BME280;2967;51.488;6.618;2023-08-30T10:45:13;100293.09;;;17.04;100.00
5883;BME280;2967;51.488;6.618;2023-08-30T10:50:16;100307.06;;;17.15;100.00
5883;BME280;2967;51.488;6.618;2023-08-30T10:55:23;100311.72;;;17.13;100.00
5883;BME280;2967;51.488;6.618;2023-08-30T11:01:01;100303.63;;;17.05;100.00
5883;BME280;2967;51.488;6.618;2023-08-30T11:06:06;100307.16;;;17.06;100.00
5883;BME280;2967;51.488;6.618;2023-08-30T11:11:12;100295.28;;;17.08;100.00
5883;BME280;2967;51.488;6.618;2023-08-30T11:16:21;100236.19;;;16.76;100.00
5883;BME280;2967;51.488;6.618;2023-08-30T11:21:24;100187.22;;;16.50;100.00
5883;BME280;2967;51.488;6.618;2023-08-30T11:26:28;100283.75;;;17.25;100.00
5883;BME280;2967;51.488;6.618;2023-08-30T11:31:34;100283.53;;;17.19;100.00
5883;BME280;2967;51.488;6.618;2023-08-30T11:36:40;100288.97;;;17.09;100.00
5883;BME280;2967;51.488;6.618;2023-08-30T11:41:46;100229.47;;;17.07;100.00
5883;BME280;2967;51.488;6.618;2023-08-30T11:46:49;100255.00;;;17.19;100.00
5883;BME280;2967;51.488;6.618;2023-08-30T11:51:59;100280.94;;;17.27;100.00
5883;BME280;2967;51.488;6.618;2023-08-30T11:57:04;100283.84;;;17.33;100.00
5883;BME280;2967;51.488;6.618;2023-08-30T12:02:08;100296.31;;;17.25;100.00
5883;BME280;2967;51.488;6.618;2023-08-30T12:07:20;100236.44;;;17.00;100.00
5883;BME280;2967;51.488;6.618;2023-08-30T12:12:32;100286.91;;;17.56;100.00
5883;BME280;2967;51.488;6.618;2023-08-30T12:17:35;100261.84;;;17.57;100.00
5883;BME280;2967;51.488;6.618;2023-08-30T12:22:39;100280.13;;;17.44;100.00
5883;BME280;2967;51.488;6.618;2023-08-30T12:27:43;100278.06;;;17.38;100.00
5883;BME280;2967;51.488;6.618;2023-08-30T12:32:47;100248.66;;;17.20;100.00
5883;BME280;2967;51.488;6.618;2023-08-30T12:37:50;100262.84;;;17.21;100.00
5883;BME280;2967;51.488;6.618;2023-08-30T12:42:54;100265.31;;;17.49;100.00
5883;BME280;2967;51.488;6.618;2023-08-30T12:47:57;100266.66;;;17.53;100.00
5883;BME280;2967;51.488;6.618;2023-08-30T12:53:04;100238.78;;;17.38;100.00
5883;BME280;2967;51.488;6.618;2023-08-30T12:58:08;100251.47;;;17.36;100.00
5883;BME280;2967;51.488;6.618;2023-08-30T13:03:11;100224.47;;;17.47;100.00
5883;BME280;2967;51.488;6.618;2023-08-30T13:08:15;100223.13;;;17.08;100.00
5883;BME280;2967;51.488;6.618;2023-08-30T13:13:22;100230.00;;;17.46;100.00
5883;BME280;2967;51.488;6.618;2023-08-30T13:18:25;100210.38;;;17.20;100.00
5883;BME280;2967;51.488;6.618;2023-08-30T13:23:27;100236.25;;;17.54;100.00
5883;BME280;2967;51.488;6.618;2023-08-30T13:28:31;100283.06;;;17.58;100.00
5883;BME280;2967;51.488;6.618;2023-08-30T13:33:34;100272.63;;;17.47;100.00
5883;BME280;2967;51.488;6.618;2023-08-30T13:38:37;100273.50;;;17.73;100.00
5883;BME280;2967;51.488;6.618;2023-08-30T13:43:42;100284.03;;;17.75;100.00
5883;BME280;2967;51.488;6.618;2023-08-30T13:48:45;100265.13;;;17.76;100.00
5883;BME280;2967;51.488;6.618;2023-08-30T13:54:00;100267.19;;;17.82;100.00
5883;BME280;2967;51.488;6.618;2023-08-30T13:59:29;100261.38;;;17.61;100.00
5883;BME280;2967;51.488;6.618;2023-08-30T14:04:33;100188.56;;;17.50;100.00
5883;BME280;2967;51.488;6.618;2023-08-30T14:09:39;99988.66;;;16.16;100.00
5883;BME280;2967;51.488;6.618;2023-08-30T14:14:45;100120.72;;;16.82;100.00
5883;BME280;2967;51.488;6.618;2023-08-30T14:19:51;100242.44;;;17.55;100.00
5883;BME280;2967;51.488;6.618;2023-08-30T14:24:58;100199.59;;;17.29;100.00
5883;BME280;2967;51.488;6.618;2023-08-30T14:30:15;100271.97;;;17.71;100.00
5883;BME280;2967;51.488;6.618;2023-08-30T14:35:18;100253.03;;;17.64;100.00
5883;BME280;2967;51.488;6.618;2023-08-30T14:40:22;100278.97;;;17.89;100.00
5883;BME280;2967;51.488;6.618;2023-08-30T14:45:26;100268.28;;;17.97;100.00
5883;BME280;2967;51.488;6.618;2023-08-30T14:50:29;100217.00;;;17.51;100.00
5883;BME280;2967;51.488;6.618;2023-08-30T14:55:33;100270.06;;;18.14;100.00
5883;BME280;2967;51.488;6.618;2023-08-30T15:00:39;100244.19;;;17.97;100.00
5883;BME280;2967;51.488;6.618;2023-08-30T15:05:44;100260.44;;;18.04;100.00
5883;BME280;2967;51.488;6.618;2023-08-30T15:10:47;100268.81;;;18.01;100.00
5883;BME280;2967;51.488;6.618;2023-08-30T15:15:51;100261.84;;;17.82;100.00
5883;BME280;2967;51.488;6.618;2023-08-30T15:20:54;100254.38;;;17.94;100.00
5883;BME280;2967;51.488;6.618;2023-08-30T15:25:57;100257.28;;;18.00;100.00
5883;BME280;2967;51.488;6.618;2023-08-30T15:31:01;100280.72;;;18.32;100.00
5883;BME280;2967;51.488;6.618;2023-08-30T15:36:05;100233.44;;;18.15;100.00
5883;BME280;2967;51.488;6.618;2023-08-30T15:41:09;100255.59;;;18.33;100.00
5883;BME280;2967;51.488;6.618;2023-08-30T15:46:16;100220.66;;;17.75;100.00
5883;BME280;2967;51.488;6.618;2023-08-30T15:51:20;100271.56;;;18.42;100.00
5883;BME280;2967;51.488;6.618;2023-08-30T15:56:26;100204.56;;;18.34;100.00
5883;BME280;2967;51.488;6.618;2023-08-30T16:01:31;100275.41;;;18.97;100.00
5883;BME280;2967;51.488;6.618;2023-08-30T16:06:35;100263.66;;;18.82;100.00
5883;BME280;2967;51.488;6.618;2023-08-30T16:11:39;100253.81;;;18.41;100.00
5883;BME280;2967;51.488;6.618;2023-08-30T16:16:44;100256.22;;;18.68;100.00
5883;BME280;2967;51.488;6.618;2023-08-30T16:21:47;100265.19;;;19.00;100.00
5883;BME280;2967;51.488;6.618;2023-08-30T16:26:54;100283.97;;;19.16;100.00
5883;BME280;2967;51.488;6.618;2023-08-30T16:32:00;100287.91;;;18.73;100.00
5883;BME280;2967;51.488;6.618;2023-08-30T16:37:03;100291.84;;;19.10;100.00
5883;BME280;2967;51.488;6.618;2023-08-30T16:42:07;100290.81;;;18.95;100.00
5883;BME280;2967;51.488;6.618;2023-08-30T16:47:16;100232.56;;;18.48;100.00
5883;BME280;2967;51.488;6.618;2023-08-30T16:52:25;100117.13;;;17.68;100.00
5883;BME280;2967;51.488;6.618;2023-08-30T16:57:30;100273.56;;;18.48;100.00
5883;BME280;2967;51.488;6.618;2023-08-30T17:02:38;100331.59;;;19.14;100.00
5883;BME280;2967;51.488;6.618;2023-08-30T17:07:44;100338.72;;;18.98;100.00
5883;BME280;2967;51.488;6.618;2023-08-30T17:12:48;100333.16;;;18.76;100.00
5883;BME280;2967;51.488;6.618;2023-08-30T17:17:54;100338.66;;;18.74;100.00
5883;BME280;2967;51.488;6.618;2023-08-30T17:23:01;100344.41;;;18.20;100.00
5883;BME280;2967;51.488;6.618;2023-08-30T17:28:04;100314.47;;;17.74;100.00
5883;BME280;2967;51.488;6.618;2023-08-30T17:33:09;100356.81;;;18.04;100.00
5883;BME280;2967;51.488;6.618;2023-08-30T17:38:12;100349.28;;;17.99;100.00
5883;BME280;2967;51.488;6.618;2023-08-30T17:43:18;100360.72;;;18.09;100.00
5883;BME280;2967;51.488;6.618;2023-08-30T17:48:22;100363.34;;;18.01;100.00
5883;BME280;2967;51.488;6.618;2023-08-30T17:53:25;100319.22;;;17.62;100.00
5883;BME280;2967;51.488;6.618;2023-08-30T17:58:28;100360.03;;;17.64;100.00
5883;BME280;2967;51.488;6.618;2023-08-30T18:03:32;100395.78;;;17.81;100.00
5883;BME280;2967;51.488;6.618;2023-08-30T18:08:36;100356.38;;;17.48;100.00
5883;BME280;2967;51.488;6.618;2023-08-30T18:13:39;100392.22;;;17.55;100.00
5883;BME280;2967;51.488;6.618;2023-08-30T18:18:46;100396.53;;;17.38;100.00
5883;BME280;2967;51.488;6.618;2023-08-30T18:24:11;100402.38;;;17.24;100.00
5883;BME280;2967;51.488;6.618;2023-08-30T18:29:18;100405.47;;;17.29;100.00
5883;BME280;2967;51.488;6.618;2023-08-30T18:34:23;100403.97;;;17.17;100.00
5883;BME280;2967;51.488;6.618;2023-08-30T18:39:27;100409.47;;;17.16;100.00
5883;BME280;2967;51.488;6.618;2023-08-30T18:44:35;100342.69;;;16.62;100.00
5883;BME280;2967;51.488;6.618;2023-08-30T18:49:39;100389.00;;;16.80;100.00
5883;BME280;2967;51.488;6.618;2023-08-30T18:54:42;100384.16;;;16.66;100.00
5883;BME280;2967;51.488;6.618;2023-08-30T18:59:46;100389.75;;;16.99;100.00
5883;BME280;2967;51.488;6.618;2023-08-30T19:04:51;100432.06;;;17.04;100.00
5883;BME280;2967;51.488;6.618;2023-08-30T19:09:54;100324.41;;;16.30;100.00
5883;BME280;2967;51.488;6.618;2023-08-30T19:14:57;100439.72;;;16.89;100.00
5883;BME280;2967;51.488;6.618;2023-08-30T19:20:01;100454.53;;;16.84;100.00
5883;BME280;2967;51.488;6.618;2023-08-30T19:25:07;100437.41;;;16.67;100.00
5883;BME280;2967;51.488;6.618;2023-08-30T19:30:16;100378.78;;;16.29;100.00
5883;BME280;2967;51.488;6.618;2023-08-30T19:35:22;100402.06;;;16.46;100.00
5883;BME280;2967;51.488;6.618;2023-08-30T19:40:27;100440.06;;;16.67;100.00
5883;BME280;2967;51.488;6.618;2023-08-30T19:45:31;100442.50;;;16.61;100.00
5883;BME280;2967;51.488;6.618;2023-08-30T19:50:35;100483.78;;;16.76;100.00
5883;BME280;2967;51.488;6.618;2023-08-30T19:55:40;100458.84;;;16.48;100.00
5883;BME280;2967;51.488;6.618;2023-08-30T20:00:43;100432.84;;;16.41;100.00
5883;BME280;2967;51.488;6.618;2023-08-30T20:05:48;100493.00;;;17.54;100.00
5883;BME280;2967;51.488;6.618;2023-08-30T20:11:00;100460.63;;;16.57;100.00
5883;BME280;2967;51.488;6.618;2023-08-30T20:16:08;100477.94;;;16.53;100.00
5883;BME280;2967;51.488;6.618;2023-08-30T20:21:15;100486.03;;;16.80;100.00
5883;BME280;2967;51.488;6.618;2023-08-30T20:26:18;100504.56;;;16.82;100.00
5883;BME280;2967;51.488;6.618;2023-08-30T20:31:22;100516.53;;;16.78;100.00
5883;BME280;2967;51.488;6.618;2023-08-30T20:36:27;100508.66;;;16.86;100.00
5883;BME280;2967;51.488;6.618;2023-08-30T20:41:41;100458.53;;;16.61;100.00
5883;BME280;2967;51.488;6.618;2023-08-30T20:46:47;100494.03;;;16.80;100.00
5883;BME280;2967;51.488;6.618;2023-08-30T20:51:56;100516.09;;;16.82;100.00
5883;BME280;2967;51.488;6.618;2023-08-30T20:56:59;100517.03;;;16.91;100.00
5883;BME280;2967;51.488;6.618;2023-08-30T21:02:02;100525.38;;;16.78;100.00
5883;BME280;2967;51.488;6.618;2023-08-30T21:07:08;100521.56;;;16.90;100.00
5883;BME280;2967;51.488;6.618;2023-08-30T21:12:12;100473.94;;;16.76;100.00
5883;BME280;2967;51.488;6.618;2023-08-30T21:17:15;100513.56;;;16.81;100.00
5883;BME280;2967;51.488;6.618;2023-08-30T21:22:23;100522.00;;;16.76;100.00
5883;BME280;2967;51.488;6.618;2023-08-30T21:27:26;100499.00;;;16.66;100.00
5883;BME280;2967;51.488;6.618;2023-08-30T21:32:30;100513.59;;;16.71;100.00
5883;BME280;2967;51.488;6.618;2023-08-30T21:37:38;100516.09;;;16.73;100.00
5883;BME280;2967;51.488;6.618;2023-08-30T21:42:44;100516.41;;;16.70;100.00
5883;BME280;2967;51.488;6.618;2023-08-30T21:47:48;100519.81;;;16.62;100.00
5883;BME280;2967;51.488;6.618;2023-08-30T21:53:01;100521.19;;;16.66;100.00
5883;BME280;2967;51.488;6.618;2023-08-30T21:58:08;100370.47;;;15.68;100.00
5883;BME280;2967;51.488;6.618;2023-08-30T22:03:15;100188.69;;;14.41;100.00
5883;BME280;2967;51.488;6.618;2023-08-30T22:08:27;100531.50;;;16.42;100.00
5883;BME280;2967;51.488;6.618;2023-08-30T22:18:49;100541.31;;;16.32;100.00
5883;BME280;2967;51.488;6.618;2023-08-30T22:23:54;100352.78;;;15.29;100.00
5883;BME280;2967;51.488;6.618;2023-08-30T22:28:59;100544.44;;;16.47;100.00
5883;BME280;2967;51.488;6.618;2023-08-30T22:34:02;100457.06;;;16.01;100.00
5883;BME280;2967;51.488;6.618;2023-08-30T22:39:06;100486.41;;;16.20;100.00
5883;BME280;2967;51.488;6.618;2023-08-30T22:44:09;100538.06;;;16.57;100.00
5883;BME280;2967;51.488;6.618;2023-08-30T22:49:12;100488.91;;;16.31;100.00
5883;BME280;2967;51.488;6.618;2023-08-30T22:54:18;100521.22;;;16.47;100.00
5883;BME280;2967;51.488;6.618;2023-08-30T22:59:25;100452.97;;;15.97;100.00
5883;BME280;2967;51.488;6.618;2023-08-30T23:04:42;100493.84;;;16.17;100.00
5883;BME280;2967;51.488;6.618;2023-08-30T23:09:48;100495.69;;;15.88;100.00
5883;BME280;2967;51.488;6.618;2023-08-30T23:14:51;100551.00;;;16.14;100.00
5883;BME280;2967;51.488;6.618;2023-08-30T23:20:06;100542.72;;;15.98;100.00
5883;BME280;2967;51.488;6.618;2023-08-30T23:25:11;100552.81;;;16.04;100.00
5883;BME280;2967;51.488;6.618;2023-08-30T23:30:14;100550.00;;;15.96;100.00
5883;BME280;2967;51.488;6.618;2023-08-30T23:35:16;100491.44;;;15.57;100.00
5883;BME280;2967;51.488;6.618;2023-08-30T23:40:21;100549.03;;;15.97;100.00
5883;BME280;2967;51.488;6.618;2023-08-30T23:45:25;100556.59;;;15.74;100.00
5883;BME280;2967;51.488;6.618;2023-08-30T23:50:29;100548.03;;;15.80;100.00
5883;BME280;2967;51.488;6.618;2023-08-30T23:55:35;100443.34;;;15.10;100.00
